Time,TemperatureF,DewpointF,PressureIn,WindDirection,WindDirectionDegrees,WindSpeedMPH,WindSpeedGustMPH,Humidity,HourlyPrecipIn,Conditions,Clouds,dailyrainin,SolarRadiationWatts/m^2,SoftwareType,DateUTC
2013-09-21 00:00:00,65.9,64.1,29.74,WSW,255,3.0,4.6,94,0.29,-RA,,0.00,0.0,WeatherDisplay:10.37,2013-09-21 04:00:00,
2013-09-21 00:01:00,65.9,64.1,29.74,WSW,255,3.0,4.6,94,0.29,-RA,,0.00,0.0,WeatherDisplay:10.37,2013-09-21 04:01:00,
2013-09-21 00:03:00,65.6,63.8,29.74,NW,316,1.5,5.8,94,0.30,-RA,,0.01,0.0,WeatherDisplay:10.37,2013-09-21 04:03:00,
2013-09-21 00:08:00,65.2,63.4,29.74,North,355,0.4,3.5,94,0.30,-RA,,0.03,0.0,WeatherDisplay:10.37,2013-09-21 04:08:00,
2013-09-21 00:13:00,64.9,63.4,29.74,West,268,0.6,2.3,95,0.31,RA,,0.03,0.0,WeatherDisplay:10.37,2013-09-21 04:13:00,
2013-09-21 00:18:00,64.8,63.3,29.74,WSW,237,1.4,2.3,95,0.30,RA,,0.03,0.0,WeatherDisplay:10.37,2013-09-21 04:18:00,
2013-09-21 00:23:00,64.6,63.1,29.74,WSW,237,0.0,0.0,95,0.31,RA,,0.04,0.0,WeatherDisplay:10.37,2013-09-21 04:23:00,
2013-09-21 00:28:00,64.5,63.3,29.74,WSW,237,0.0,0.0,96,0.30,RA,,0.04,0.0,WeatherDisplay:10.37,2013-09-21 04:28:00,
2013-09-21 00:33:00,64.4,63.2,29.74,WSW,237,0.3,1.0,96,0.30, +RA,,0.04,0.0,WeatherDisplay:10.37,2013-09-21 04:33:00,
2013-09-21 00:38:00,64.3,63.1,29.74,WSW,237,0.0,1.2,96,0.30, +RA,,0.04,0.0,WeatherDisplay:10.37,2013-09-21 04:38:00,
2013-09-21 00:43:00,64.3,63.1,29.73,WSW,237,0.0,0.0,96,0.29, +RA,,0.04,0.0,WeatherDisplay:10.37,2013-09-21 04:43:00,
2013-09-21 00:48:00,64.2,63.0,29.73,WSW,237,0.0,0.0,96,0.18, +RA,,0.04,0.0,WeatherDisplay:10.37,2013-09-21 04:48:00,
2013-09-21 00:53:00,64.1,62.9,29.73,WSW,237,0.0,0.0,96,0.07, +RA,,0.04,0.0,WeatherDisplay:10.37,2013-09-21 04:53:00,
2013-09-21 00:58:00,64.1,62.9,29.73,WSW,237,0.0,0.0,96,0.05, +RA,,0.04,0.0,WeatherDisplay:10.37,2013-09-21 04:58:00,
2013-09-21 01:03:00,64.0,62.8,29.73,WSW,237,0.0,0.0,96,0.03, +RA,,0.04,0.0,WeatherDisplay:10.37,2013-09-21 05:03:00,
2013-09-21 01:08:00,63.9,62.7,29.73,WSW,237,0.0,0.0,96,0.01, +RA,,0.04,0.0,WeatherDisplay:10.37,2013-09-21 05:08:00,
2013-09-21 01:13:00,63.9,62.7,29.73,WSW,237,0.3,1.2,96,0.01,-RA,,0.04,0.0,WeatherDisplay:10.37,2013-09-21 05:13:00,
2013-09-21 01:18:00,63.8,62.6,29.73,WSW,237,0.0,0.0,96,0.01,-RA,,0.04,0.0,WeatherDisplay:10.37,2013-09-21 05:18:00,
2013-09-21 01:23:00,63.8,62.6,29.73,WSW,237,0.0,0.0,96,0.00,-RA,,0.04,0.0,WeatherDisplay:10.37,2013-09-21 05:23:00,
2013-09-21 01:28:00,63.8,62.6,29.72,WSW,237,0.0,0.0,96,0.00,-RA,,0.04,0.0,WeatherDisplay:10.37,2013-09-21 05:28:00,
2013-09-21 01:33:00,63.7,62.5,29.72,WSW,237,0.0,0.0,96,0.01,-RA,,0.05,0.0,WeatherDisplay:10.37,2013-09-21 05:33:00,
2013-09-21 01:38:00,63.7,62.5,29.72,WSW,237,0.2,1.2,96,0.01,-RA,,0.05,0.0,WeatherDisplay:10.37,2013-09-21 05:38:00,
2013-09-21 01:43:00,63.6,62.4,29.72,WSW,237,0.5,1.2,96,0.01,-RA,,0.05,0.0,WeatherDisplay:10.37,2013-09-21 05:43:00,
2013-09-21 01:48:00,63.6,62.4,29.72,WSW,237,0.3,1.2,96,0.01,-RA,,0.05,0.0,WeatherDisplay:10.37,2013-09-21 05:48:00,
2013-09-21 01:53:00,63.6,62.4,29.72,WSW,237,0.0,0.0,96,0.01,-RA,,0.05,0.0,WeatherDisplay:10.37,2013-09-21 05:53:00,
2013-09-21 01:58:00,63.6,62.7,29.72,WSW,237,0.1,1.2,97,0.02,-RA,,0.06,0.0,WeatherDisplay:10.37,2013-09-21 05:58:00,
2013-09-21 02:03:00,63.6,62.7,29.73,WSW,237,1.2,2.3,97,0.02,-RA,,0.06,0.0,WeatherDisplay:10.37,2013-09-21 06:03:00,
2013-09-21 02:08:00,63.7,62.8,29.72,WSW,237,0.2,1.0,97,0.02,-RA,,0.06,0.0,WeatherDisplay:10.37,2013-09-21 06:08:00,
2013-09-21 02:13:00,63.7,62.8,29.72,WSW,237,0.3,1.2,97,0.02,-RA,,0.06,0.0,WeatherDisplay:10.37,2013-09-21 06:13:00,
2013-09-21 02:18:00,63.8,62.9,29.72,WSW,237,0.0,0.0,97,0.02,-RA,,0.06,0.0,WeatherDisplay:10.37,2013-09-21 06:18:00,
2013-09-21 02:23:00,63.8,62.9,29.72,WSW,237,0.6,1.2,97,0.02,-RA,,0.06,0.0,WeatherDisplay:10.37,2013-09-21 06:23:00,
2013-09-21 02:28:00,63.8,62.9,29.72,WSW,237,0.0,0.0,97,0.03,-RA,,0.07,0.0,WeatherDisplay:10.37,2013-09-21 06:28:00,
2013-09-21 02:33:00,63.8,62.9,29.72,WSW,237,0.0,1.2,97,0.02,-RA,,0.07,0.0,WeatherDisplay:10.37,2013-09-21 06:33:00,
2013-09-21 02:38:00,63.9,63.0,29.72,West,272,1.0,2.3,97,0.02,-RA,,0.07,0.0,WeatherDisplay:10.37,2013-09-21 06:38:00,
2013-09-21 02:43:00,63.9,63.0,29.71,SE,132,1.8,3.5,97,0.02,-RA,,0.07,0.0,WeatherDisplay:10.37,2013-09-21 06:43:00,
2013-09-21 02:48:00,64.0,63.1,29.71,SE,132,0.0,1.2,97,0.03,-RA,,0.08,0.0,WeatherDisplay:10.37,2013-09-21 06:48:00,
2013-09-21 02:53:00,64.0,63.1,29.70,South,187,0.6,1.2,97,0.03,-RA,,0.08,0.0,WeatherDisplay:10.37,2013-09-21 06:53:00,
2013-09-21 02:58:00,64.0,63.1,29.70,South,187,0.1,1.2,97,0.02,-RA,,0.08,0.0,WeatherDisplay:10.37,2013-09-21 06:58:00,
2013-09-21 03:03:00,64.0,63.1,29.71,South,187,1.1,2.3,97,0.02,-RA,,0.08,0.0,WeatherDisplay:10.37,2013-09-21 07:03:00,
2013-09-21 03:08:00,64.0,63.1,29.71,South,187,0.0,0.0,97,0.02,-RA,,0.08,0.0,WeatherDisplay:10.37,2013-09-21 07:08:00,
2013-09-21 03:13:00,64.0,63.1,29.71,South,187,0.0,0.0,97,0.02,OVC,,0.08,0.0,WeatherDisplay:10.37,2013-09-21 07:13:00,
2013-09-21 03:18:00,64.0,63.1,29.70,South,187,0.0,0.0,97,0.02,OVC,,0.08,0.0,WeatherDisplay:10.37,2013-09-21 07:18:00,
2013-09-21 03:23:00,64.1,63.2,29.71,SSW,211,0.0,0.0,97,0.02,OVC,,0.08,0.0,WeatherDisplay:10.37,2013-09-21 07:23:00,
2013-09-21 03:28:00,64.1,63.2,29.70,SSW,211,0.6,1.2,97,0.01,OVC,,0.08,0.0,WeatherDisplay:10.37,2013-09-21 07:28:00,
2013-09-21 03:33:00,64.1,63.2,29.70,SSW,211,0.4,1.2,97,0.01,OVC,,0.08,0.0,WeatherDisplay:10.37,2013-09-21 07:33:00,
2013-09-21 03:38:00,64.1,63.2,29.71,WNW,299,0.0,1.2,97,0.01,OVC,,0.08,0.0,WeatherDisplay:10.37,2013-09-21 07:38:00,
2013-09-21 03:43:00,64.2,63.3,29.70,West,264,0.0,1.2,97,0.01,OVC,,0.08,0.0,WeatherDisplay:10.37,2013-09-21 07:43:00,
2013-09-21 03:48:00,64.2,63.3,29.70,NNE,32,0.0,0.0,97,0.00,OVC,,0.08,0.0,WeatherDisplay:10.37,2013-09-21 07:48:00,
2013-09-21 03:53:00,64.1,63.2,29.70,SW,232,1.9,3.5,97,0.00,OVC,,0.08,0.0,WeatherDisplay:10.37,2013-09-21 07:53:00,
2013-09-21 03:58:00,63.8,62.9,29.70,WSW,252,0.1,2.3,97,0.00,OVC,,0.08,0.0,WeatherDisplay:10.37,2013-09-21 07:58:00,
2013-09-21 04:03:00,63.6,62.4,29.70,WSW,252,0.5,1.2,96,0.00,OVC,,0.08,0.0,WeatherDisplay:10.37,2013-09-21 08:03:00,
2013-09-21 04:08:00,63.5,62.3,29.70,WSW,252,0.3,1.2,96,0.00,OVC,,0.08,0.0,WeatherDisplay:10.37,2013-09-21 08:08:00,
2013-09-21 04:13:00,63.3,62.1,29.69,NNW,327,0.5,2.3,96,0.00,-RA,,0.08,0.0,WeatherDisplay:10.37,2013-09-21 08:13:00,
2013-09-21 04:18:00,63.2,62.0,29.69,WNW,292,0.4,1.2,96,0.00,-RA,,0.08,0.0,WeatherDisplay:10.37,2013-09-21 08:18:00,
2013-09-21 04:23:00,63.1,62.2,29.68,WNW,293,0.0,1.2,97,0.00,-RA,,0.08,0.0,WeatherDisplay:10.37,2013-09-21 08:23:00,
2013-09-21 04:28:00,62.8,61.6,29.69,WNW,286,1.3,3.5,96,0.00,-RA,,0.08,0.0,WeatherDisplay:10.37,2013-09-21 08:28:00,
2013-09-21 04:33:00,62.5,61.3,29.69,WNW,297,1.4,3.5,96,0.00,-RA,,0.08,0.0,WeatherDisplay:10.37,2013-09-21 08:33:00,
2013-09-21 04:38:00,62.3,61.1,29.69,WSW,251,1.0,2.3,96,0.00,-RA,,0.08,0.0,WeatherDisplay:10.37,2013-09-21 08:38:00,
2013-09-21 04:43:00,62.2,61.0,29.69,West,279,0.5,1.2,96,0.00,-RA,,0.08,0.0,WeatherDisplay:10.37,2013-09-21 08:43:00,
2013-09-21 04:48:00,62.0,60.8,29.69,North,5,1.2,2.3,96,0.00,-RA,,0.08,0.0,WeatherDisplay:10.37,2013-09-21 08:48:00,
2013-09-21 04:53:00,61.9,60.7,29.68,WNW,284,0.2,2.0,96,0.00,-RA,,0.08,0.0,WeatherDisplay:10.37,2013-09-21 08:53:00,
2013-09-21 04:58:00,61.7,60.5,29.69,WSW,250,1.4,2.3,96,0.00,-RA,,0.08,0.0,WeatherDisplay:10.37,2013-09-21 08:58:00,
2013-09-21 05:03:00,61.6,60.4,29.68,WSW,244,0.2,1.2,96,0.00,-RA,,0.08,0.0,WeatherDisplay:10.37,2013-09-21 09:03:00,
2013-09-21 05:08:00,61.5,60.3,29.69,West,262,2.2,3.5,96,0.00,-RA,,0.08,0.0,WeatherDisplay:10.37,2013-09-21 09:08:00,
2013-09-21 05:13:00,61.5,60.3,29.69,WSW,246,0.4,2.3,96,0.00,-RA,,0.08,0.0,WeatherDisplay:10.37,2013-09-21 09:13:00,
2013-09-21 05:18:00,61.5,60.3,29.69,NNW,338,0.9,3.0,96,0.00,-RA,,0.08,0.0,WeatherDisplay:10.37,2013-09-21 09:18:00,
2013-09-21 05:23:00,61.4,60.2,29.69,SW,236,1.8,3.5,96,0.00,-RA,,0.08,0.0,WeatherDisplay:10.37,2013-09-21 09:23:00,
2013-09-21 05:28:00,61.3,60.2,29.69,West,277,3.0,4.6,96,0.00,-RA,,0.08,0.0,WeatherDisplay:10.37,2013-09-21 09:28:00,
2013-09-21 05:33:00,61.3,60.2,29.69,WSW,238,1.8,3.5,96,0.00,-RA,,0.08,0.0,WeatherDisplay:10.37,2013-09-21 09:33:00,
2013-09-21 05:38:00,61.2,60.1,29.69,NW,317,1.5,2.3,96,0.00,-RA,,0.08,0.0,WeatherDisplay:10.37,2013-09-21 09:38:00,
2013-09-21 05:43:00,61.1,60.0,29.69,ESE,119,1.8,4.6,96,0.00,-RA,,0.08,0.0,WeatherDisplay:10.37,2013-09-21 09:43:00,
2013-09-21 05:48:00,61.0,59.9,29.68,WSW,237,0.3,1.2,96,0.00,-RA,,0.08,0.0,WeatherDisplay:10.37,2013-09-21 09:48:00,
2013-09-21 05:53:00,60.9,59.8,29.68,WSW,248,0.8,2.3,96,0.00,-RA,,0.08,0.0,WeatherDisplay:10.37,2013-09-21 09:53:00,
2013-09-21 05:58:00,60.8,59.7,29.68,WSW,240,2.2,4.6,96,0.00,-RA,,0.08,0.0,WeatherDisplay:10.37,2013-09-21 09:58:00,
2013-09-21 06:03:00,60.7,59.6,29.68,SW,233,1.2,3.0,96,0.00,OVC,,0.08,0.0,WeatherDisplay:10.37,2013-09-21 10:03:00,
2013-09-21 06:08:00,60.6,59.5,29.68,West,270,2.0,3.5,96,0.00,OVC,,0.08,0.0,WeatherDisplay:10.37,2013-09-21 10:08:00,
2013-09-21 06:14:00,60.5,59.4,29.69,West,278,2.4,4.6,96,0.00,OVC,,0.08,0.0,WeatherDisplay:10.37,2013-09-21 10:14:00,
2013-09-21 06:19:00,60.5,59.4,29.68,WSW,244,1.9,4.6,96,0.00,OVC,,0.08,0.0,WeatherDisplay:10.37,2013-09-21 10:19:00,
2013-09-21 06:24:00,60.4,59.0,29.69,SW,229,2.0,3.5,95,0.00,OVC,,0.08,0.0,WeatherDisplay:10.37,2013-09-21 10:24:00,
2013-09-21 06:29:00,60.3,58.9,29.69,WSW,247,1.3,4.0,95,0.00,OVC,,0.08,0.0,WeatherDisplay:10.37,2013-09-21 10:29:00,
2013-09-21 06:34:00,60.2,58.8,29.69,WSW,252,2.5,6.0,95,0.00,OVC,,0.08,0.0,WeatherDisplay:10.37,2013-09-21 10:34:00,
2013-09-21 06:39:00,60.0,58.6,29.69,WSW,252,2.3,4.0,95,0.00,OVC,,0.08,0.0,WeatherDisplay:10.37,2013-09-21 10:39:00,
2013-09-21 06:44:00,60.0,58.6,29.69,WSW,246,1.3,3.5,95,0.00,OVC,,0.08,0.0,WeatherDisplay:10.37,2013-09-21 10:44:00,
2013-09-21 06:49:00,59.9,58.5,29.69,NW,316,2.6,3.5,95,0.00,OVC,,0.08,0.0,WeatherDisplay:10.37,2013-09-21 10:49:00,
2013-09-21 06:54:00,59.8,58.4,29.68,WNW,299,2.8,3.5,95,0.00,OVC,,0.08,0.0,WeatherDisplay:10.37,2013-09-21 10:54:00,
2013-09-21 06:59:00,59.7,58.3,29.68,West,271,3.1,4.6,95,0.00,OVC,,0.08,0.0,WeatherDisplay:10.37,2013-09-21 10:59:00,
2013-09-21 07:04:00,59.6,58.2,29.68,West,267,0.8,3.5,95,0.00,OVC,,0.08,0.0,WeatherDisplay:10.37,2013-09-21 11:04:00,
2013-09-21 07:09:00,59.6,58.2,29.68,WSW,250,0.8,3.0,95,0.00,OVC,,0.08,0.0,WeatherDisplay:10.37,2013-09-21 11:09:00,
2013-09-21 07:14:00,59.5,58.1,29.68,SW,221,1.6,3.5,95,0.00,OVC,,0.08,0.0,WeatherDisplay:10.37,2013-09-21 11:14:00,
2013-09-21 07:19:00,59.4,58.0,29.69,WSW,257,1.0,3.0,95,0.00,OVC,,0.08,0.0,WeatherDisplay:10.37,2013-09-21 11:19:00,
2013-09-21 07:24:00,59.4,58.3,29.69,WSW,238,0.4,2.3,96,0.00,OVC,,0.08,0.0,WeatherDisplay:10.37,2013-09-21 11:24:00,
2013-09-21 07:29:00,59.3,58.2,29.69,West,263,1.0,2.3,96,0.00,OVC,,0.08,0.0,WeatherDisplay:10.37,2013-09-21 11:29:00,
2013-09-21 07:34:00,59.2,58.1,29.69,WSW,247,2.4,3.5,96,0.00,OVC,,0.08,0.0,WeatherDisplay:10.37,2013-09-21 11:34:00,
2013-09-21 07:39:00,59.1,58.0,29.69,WSW,238,2.1,3.5,96,0.00,OVC,,0.08,0.0,WeatherDisplay:10.37,2013-09-21 11:39:00,
2013-09-21 07:44:00,59.1,58.0,29.69,WSW,246,0.9,3.0,96,0.00,OVC,,0.08,5.0,WeatherDisplay:10.37,2013-09-21 11:44:00,
2013-09-21 07:49:00,59.0,57.9,29.69,West,264,2.0,4.6,96,0.00,OVC,,0.08,9.0,WeatherDisplay:10.37,2013-09-21 11:49:00,
2013-09-21 07:54:00,59.0,57.9,29.69,WSW,252,2.8,3.5,96,0.00,OVC,,0.08,9.0,WeatherDisplay:10.37,2013-09-21 11:54:00,
2013-09-21 07:59:00,59.0,57.9,29.69,West,273,1.7,3.5,96,0.00,OVC,,0.08,11.0,WeatherDisplay:10.37,2013-09-21 11:59:00,
2013-09-21 08:04:00,58.9,57.8,29.69,West,273,2.6,3.5,96,0.00,OVC,,0.08,14.0,WeatherDisplay:10.37,2013-09-21 12:04:00,
2013-09-21 08:09:00,58.9,57.8,29.69,West,276,1.5,3.5,96,0.00,OVC,,0.08,16.0,WeatherDisplay:10.37,2013-09-21 12:09:00,
2013-09-21 08:14:00,58.8,57.7,29.69,WSW,252,3.8,4.6,96,0.00,OVC,,0.08,16.0,WeatherDisplay:10.37,2013-09-21 12:14:00,
2013-09-21 08:19:00,58.8,57.7,29.69,WSW,251,3.7,4.6,96,0.00,OVC,,0.08,18.0,WeatherDisplay:10.37,2013-09-21 12:19:00,
2013-09-21 08:24:00,58.9,57.8,29.69,WSW,248,2.9,4.6,96,0.00,OVC,,0.08,21.0,WeatherDisplay:10.37,2013-09-21 12:24:00,
2013-09-21 08:29:00,58.9,57.5,29.70,WSW,243,2.0,3.5,95,0.00,OVC,,0.08,25.0,WeatherDisplay:10.37,2013-09-21 12:29:00,
2013-09-21 08:34:00,58.9,57.5,29.70,WSW,247,3.0,5.8,95,0.00,OVC,,0.08,28.0,WeatherDisplay:10.37,2013-09-21 12:34:00,
2013-09-21 08:39:00,58.9,57.5,29.70,SW,225,3.6,5.0,95,0.00,OVC,,0.08,39.0,WeatherDisplay:10.37,2013-09-21 12:39:00,
2013-09-21 08:44:00,58.9,57.5,29.70,West,269,3.5,5.8,95,0.00,OVC,,0.08,47.0,WeatherDisplay:10.37,2013-09-21 12:44:00,
2013-09-21 08:49:00,59.0,57.6,29.70,WNW,298,3.3,4.6,95,0.00,OVC,,0.08,53.0,WeatherDisplay:10.37,2013-09-21 12:49:00,
2013-09-21 08:54:00,59.0,57.6,29.71,SW,236,1.8,3.5,95,0.00,OVC,,0.08,47.0,WeatherDisplay:10.37,2013-09-21 12:54:00,
2013-09-21 08:59:00,59.1,58.0,29.71,SSW,192,1.9,3.5,96,0.00,OVC,,0.08,54.0,WeatherDisplay:10.37,2013-09-21 12:59:00,
2013-09-21 09:04:00,59.2,57.8,29.71,NE,34,2.2,3.5,95,0.00,BKN,,0.08,49.0,WeatherDisplay:10.37,2013-09-21 13:04:00,
2013-09-21 09:09:00,59.3,57.9,29.71,West,279,2.1,3.5,95,0.00,BKN,,0.08,60.0,WeatherDisplay:10.37,2013-09-21 13:09:00,
2013-09-21 09:14:00,59.3,57.6,29.71,WNW,290,3.5,8.1,94,0.00,BKN,,0.08,79.0,WeatherDisplay:10.37,2013-09-21 13:14:00,
2013-09-21 09:19:00,59.3,57.6,29.71,NNE,23,0.9,2.3,94,0.00,BKN,,0.08,74.0,WeatherDisplay:10.37,2013-09-21 13:19:00,
2013-09-21 09:24:00,59.4,57.7,29.71,NW,305,3.0,5.8,94,0.00,BKN,,0.08,74.0,WeatherDisplay:10.37,2013-09-21 13:24:00,
2013-09-21 09:29:00,59.4,57.7,29.71,WNW,294,1.0,2.3,94,0.00,BKN,,0.08,86.0,WeatherDisplay:10.37,2013-09-21 13:29:00,
2013-09-21 09:34:00,59.4,57.7,29.71,West,270,0.9,2.3,94,0.00,BKN,,0.08,81.0,WeatherDisplay:10.37,2013-09-21 13:34:00,
2013-09-21 09:39:00,59.4,57.7,29.71,West,260,1.9,3.5,94,0.00,BKN,,0.08,91.0,WeatherDisplay:10.37,2013-09-21 13:39:00,
2013-09-21 09:44:00,59.4,57.7,29.71,WSW,246,2.5,4.6,94,0.00,OVC,,0.08,86.0,WeatherDisplay:10.37,2013-09-21 13:44:00,
2013-09-21 09:49:00,59.5,57.8,29.72,West,271,2.3,4.0,94,0.00,OVC,,0.08,76.0,WeatherDisplay:10.37,2013-09-21 13:49:00,
2013-09-21 09:54:00,59.6,57.9,29.72,West,281,2.3,3.5,94,0.00,OVC,,0.08,105.0,WeatherDisplay:10.37,2013-09-21 13:54:00,
2013-09-21 09:59:00,59.8,58.1,29.72,WSW,245,3.1,4.6,94,0.00,OVC,,0.08,116.0,WeatherDisplay:10.37,2013-09-21 13:59:00,
2013-09-21 10:04:00,60.3,58.6,29.72,NW,320,3.1,4.6,94,0.00,BKN,,0.08,197.0,WeatherDisplay:10.37,2013-09-21 14:04:00,
2013-09-21 10:09:00,60.8,58.5,29.72,West,268,3.5,6.0,92,0.00,BKN,,0.08,265.0,WeatherDisplay:10.37,2013-09-21 14:09:00,
2013-09-21 10:14:00,61.3,59.0,29.71,West,275,3.6,6.9,92,0.00,BKN,,0.08,221.0,WeatherDisplay:10.37,2013-09-21 14:14:00,
2013-09-21 10:19:00,61.4,58.1,29.72,WSW,250,3.9,8.1,89,0.00,BKN,,0.08,158.0,WeatherDisplay:10.37,2013-09-21 14:19:00,
2013-09-21 10:24:00,61.3,58.0,29.71,WSW,247,2.8,4.6,89,0.00,BKN,,0.08,123.0,WeatherDisplay:10.37,2013-09-21 14:24:00,
2013-09-21 10:29:00,61.4,57.8,29.72,West,278,3.3,5.8,88,0.00,BKN,,0.08,123.0,WeatherDisplay:10.37,2013-09-21 14:29:00,
2013-09-21 10:34:00,61.6,58.3,29.72,NNW,346,5.5,9.2,89,0.00,BKN,,0.08,123.0,WeatherDisplay:10.37,2013-09-21 14:34:00,
2013-09-21 10:39:00,61.8,58.5,29.71,West,277,3.5,5.8,89,0.00,BKN,,0.08,127.0,WeatherDisplay:10.37,2013-09-21 14:39:00,
2013-09-21 10:44:00,62.2,58.6,29.72,West,271,3.7,6.0,88,0.00,BKN,,0.08,81.0,WeatherDisplay:10.37,2013-09-21 14:44:00,
2013-09-21 10:49:00,62.4,58.5,29.71,NW,319,3.1,4.6,87,0.00,BKN,,0.08,63.0,WeatherDisplay:10.37,2013-09-21 14:49:00,
2013-09-21 10:54:00,62.7,58.8,29.71,NNW,327,4.3,11.5,87,0.00,BKN,,0.08,190.0,WeatherDisplay:10.37,2013-09-21 14:54:00,
2013-09-21 10:59:00,63.0,58.7,29.72,West,265,3.6,6.9,86,0.00,BKN,,0.08,279.0,WeatherDisplay:10.37,2013-09-21 14:59:00,
2013-09-21 11:04:00,63.3,58.7,29.72,West,270,3.1,9.2,85,0.00,BKN,,0.08,163.0,WeatherDisplay:10.37,2013-09-21 15:04:00,
2013-09-21 11:09:00,63.0,58.4,29.72,WNW,291,2.9,4.6,85,0.00,BKN,,0.08,202.0,WeatherDisplay:10.37,2013-09-21 15:09:00,
2013-09-21 11:14:00,62.8,57.9,29.72,NNW,336,2.9,6.9,84,0.00,BKN,,0.08,186.0,WeatherDisplay:10.37,2013-09-21 15:14:00,
2013-09-21 11:19:00,62.7,57.8,29.72,WSW,244,1.2,2.3,84,0.00,BKN,,0.08,229.0,WeatherDisplay:10.37,2013-09-21 15:19:00,
2013-09-21 11:24:00,63.2,58.9,29.72,West,261,1.6,3.5,86,0.00,BKN,,0.08,172.0,WeatherDisplay:10.37,2013-09-21 15:24:00,
2013-09-21 11:29:00,63.6,59.0,29.72,NNW,331,2.2,3.5,85,0.00,BKN,,0.08,213.0,WeatherDisplay:10.37,2013-09-21 15:29:00,
2013-09-21 11:34:00,64.0,59.4,29.72,West,269,2.6,5.8,85,0.00,BKN,,0.08,272.0,WeatherDisplay:10.37,2013-09-21 15:34:00,
2013-09-21 11:39:00,64.1,59.2,29.72,NE,55,3.2,5.8,84,0.00,BKN,,0.08,113.0,WeatherDisplay:10.37,2013-09-21 15:39:00,
2013-09-21 11:44:00,64.3,58.7,29.72,NW,304,2.9,4.6,82,0.00,BKN,,0.08,427.0,WeatherDisplay:10.37,2013-09-21 15:44:00,
2013-09-21 11:49:00,64.8,59.5,29.72,WSW,240,4.1,6.9,83,0.00,BKN,,0.08,828.0,WeatherDisplay:10.37,2013-09-21 15:49:00,
2013-09-21 11:54:00,65.0,59.0,29.72,ESE,114,2.4,3.5,81,0.00,BKN,,0.08,251.0,WeatherDisplay:10.37,2013-09-21 15:54:00,
2013-09-21 11:59:00,65.3,58.6,29.72,WSW,238,3.2,5.8,79,0.00,BKN,,0.08,909.0,WeatherDisplay:10.37,2013-09-21 15:59:00,
2013-09-21 12:04:00,65.5,58.8,29.72,NW,323,3.5,9.2,79,0.00,BKN,,0.08,176.0,WeatherDisplay:10.37,2013-09-21 16:04:00,
2013-09-21 12:09:00,64.8,57.4,29.73,North,10,4.9,8.1,77,0.00,BKN,,0.08,165.0,WeatherDisplay:10.37,2013-09-21 16:09:00,
2013-09-21 12:14:00,64.5,58.5,29.73,WSW,254,1.6,3.5,81,0.00,BKN,,0.08,830.0,WeatherDisplay:10.37,2013-09-21 16:14:00,
2013-09-21 12:19:00,65.3,58.6,29.73,WSW,238,3.8,6.9,79,0.00,BKN,,0.08,561.0,WeatherDisplay:10.37,2013-09-21 16:19:00,
2013-09-21 12:24:00,65.3,57.9,29.73,WNW,296,3.0,6.9,77,0.00,BKN,,0.08,269.0,WeatherDisplay:10.37,2013-09-21 16:24:00,
2013-09-21 12:29:00,65.0,58.0,29.72,NW,314,5.2,8.1,78,0.00,BKN,,0.08,183.0,WeatherDisplay:10.37,2013-09-21 16:29:00,
2013-09-21 12:34:00,65.0,58.3,29.72,NW,312,3.0,6.9,79,0.00,BKN,,0.08,872.0,WeatherDisplay:10.37,2013-09-21 16:34:00,
2013-09-21 12:39:00,65.4,58.4,29.72,North,10,2.9,9.2,78,0.00,BKN,,0.08,265.0,WeatherDisplay:10.37,2013-09-21 16:39:00,
2013-09-21 12:44:00,65.6,58.2,29.72,NNW,332,3.8,5.8,77,0.00,BKN,,0.08,773.0,WeatherDisplay:10.37,2013-09-21 16:44:00,
2013-09-21 12:49:00,65.7,57.9,29.73,North,9,5.3,8.1,76,0.00,BKN,,0.08,765.0,WeatherDisplay:10.37,2013-09-21 16:49:00,
2013-09-21 12:54:00,65.9,57.4,29.73,NW,325,4.4,6.9,74,0.00,BKN,,0.08,926.0,WeatherDisplay:10.37,2013-09-21 16:54:00,
2013-09-21 12:59:00,65.7,56.4,29.74,West,266,4.5,10.4,72,0.00,BKN,,0.08,160.0,WeatherDisplay:10.37,2013-09-21 16:59:00,
2013-09-21 13:04:00,65.0,56.5,29.74,WNW,284,2.9,4.6,74,0.00,BKN,,0.08,160.0,WeatherDisplay:10.37,2013-09-21 17:04:00,
2013-09-21 13:09:00,64.7,56.2,29.74,West,275,2.9,5.8,74,0.00,BKN,,0.08,937.0,WeatherDisplay:10.37,2013-09-21 17:09:00,
2013-09-21 13:14:00,65.2,57.1,29.74,NE,40,4.2,4.2,75,0.00,BKN,,0.08,227.0,WeatherDisplay:10.37,2013-09-21 17:14:00,
2013-09-21 13:19:00,65.3,56.8,29.74,NW,307,2.4,4.6,74,0.00,BKN,,0.08,271.0,WeatherDisplay:10.37,2013-09-21 17:19:00,
2013-09-21 13:24:00,65.2,57.4,29.74,NNE,13,2.2,5.8,76,0.00,BKN,,0.08,271.0,WeatherDisplay:10.37,2013-09-21 17:24:00,
2013-09-21 13:29:00,65.7,57.2,29.74,SW,229,4.3,12.0,74,0.00,BKN,,0.08,851.0,WeatherDisplay:10.37,2013-09-21 17:29:00,
2013-09-21 13:34:00,65.9,57.0,29.74,NW,308,2.7,6.9,73,0.00,BKN,,0.08,824.0,WeatherDisplay:10.37,2013-09-21 17:34:00,
2013-09-21 13:39:00,66.4,57.5,29.74,NNW,335,3.8,8.1,73,0.00,BKN,,0.08,378.0,WeatherDisplay:10.37,2013-09-21 17:39:00,
2013-09-21 13:44:00,66.5,56.4,29.74,NNE,17,1.1,6.9,70,0.00,BKN,,0.08,772.0,WeatherDisplay:10.37,2013-09-21 17:44:00,
2013-09-21 13:49:00,66.9,56.8,29.74,NW,306,2.6,4.6,70,0.00,BKN,,0.08,800.0,WeatherDisplay:10.37,2013-09-21 17:49:00,
2013-09-21 13:54:00,67.3,57.2,29.74,WNW,300,2.8,6.9,70,0.00,BKN,,0.08,846.0,WeatherDisplay:10.37,2013-09-21 17:54:00,
2013-09-21 13:59:00,67.4,56.5,29.74,NNW,338,2.9,6.9,68,0.00,BKN,,0.08,795.0,WeatherDisplay:10.37,2013-09-21 17:59:00,
2013-09-21 14:04:00,67.9,57.4,29.73,North,350,2.7,4.6,69,0.00,BKN,,0.08,849.0,WeatherDisplay:10.37,2013-09-21 18:04:00,
2013-09-21 14:09:00,68.2,56.8,29.73,West,266,3.2,11.5,67,0.00,BKN,,0.08,940.0,WeatherDisplay:10.37,2013-09-21 18:09:00,
2013-09-21 14:14:00,68.4,56.6,29.74,WNW,300,1.7,4.6,66,0.00,BKN,,0.08,239.0,WeatherDisplay:10.37,2013-09-21 18:14:00,
2013-09-21 14:20:00,67.7,55.9,29.74,NW,314,2.4,10.4,66,0.00,BKN,,0.08,246.0,WeatherDisplay:10.37,2013-09-21 18:20:00,
2013-09-21 14:25:00,67.1,55.8,29.74,NW,307,1.6,7.0,67,0.00,BKN,,0.08,188.0,WeatherDisplay:10.37,2013-09-21 18:25:00,
2013-09-21 14:30:00,66.5,54.8,29.74,NW,313,2.4,6.9,66,0.00,BKN,,0.08,202.0,WeatherDisplay:10.37,2013-09-21 18:30:00,
2013-09-21 14:35:00,66.1,55.2,29.74,WSW,253,3.4,5.8,68,0.00,BKN,,0.08,823.0,WeatherDisplay:10.37,2013-09-21 18:35:00,
2013-09-21 14:40:00,66.6,54.5,29.74,NNE,26,2.8,6.0,65,0.00,BKN,,0.08,860.0,WeatherDisplay:10.37,2013-09-21 18:40:00,
2013-09-21 14:45:00,66.8,54.7,29.74,WNW,298,1.3,4.0,65,0.00,BKN,,0.08,860.0,WeatherDisplay:10.37,2013-09-21 18:45:00,
2013-09-21 14:50:00,67.0,56.1,29.74,WSW,251,1.4,4.0,68,0.00,BKN,,0.08,775.0,WeatherDisplay:10.37,2013-09-21 18:50:00,
2013-09-21 14:55:00,67.8,55.6,29.74,NW,325,1.5,3.5,65,0.00,BKN,,0.08,824.0,WeatherDisplay:10.37,2013-09-21 18:55:00,
2013-09-21 15:00:00,68.7,54.7,29.74,NW,306,1.4,2.3,61,0.00,BKN,,0.08,798.0,WeatherDisplay:10.37,2013-09-21 19:00:00,
2013-09-21 15:05:00,69.4,55.8,29.74,NE,53,2.0,5.8,62,0.00,BKN,,0.08,817.0,WeatherDisplay:10.37,2013-09-21 19:05:00,
2013-09-21 15:10:00,69.6,53.7,29.74,East,94,3.1,6.9,57,0.00,BKN,,0.08,788.0,WeatherDisplay:10.37,2013-09-21 19:10:00,
2013-09-21 15:16:00,69.4,54.0,29.74,West,279,2.5,4.6,58,0.00,BKN,,0.08,146.0,WeatherDisplay:10.37,2013-09-21 19:16:00,
2013-09-21 15:21:00,69.0,54.1,29.74,NNW,328,3.5,5.8,59,0.00,BKN,,0.08,765.0,WeatherDisplay:10.37,2013-09-21 19:21:00,
2013-09-21 15:26:00,69.0,54.1,29.74,North,5,6.7,12.7,59,0.00,BKN,,0.08,812.0,WeatherDisplay:10.37,2013-09-21 19:26:00,
2013-09-21 15:31:00,69.0,52.2,29.74,WNW,286,5.5,10.4,55,0.00,BKN,,0.08,214.0,WeatherDisplay:10.37,2013-09-21 19:31:00,
2013-09-21 15:36:00,68.5,52.7,29.74,NNW,338,3.5,5.8,57,0.00,BKN,,0.08,708.0,WeatherDisplay:10.37,2013-09-21 19:36:00,
2013-09-21 15:41:00,68.5,52.2,29.74,NNW,331,4.6,7.0,56,0.00,BKN,,0.08,638.0,WeatherDisplay:10.37,2013-09-21 19:41:00,
2013-09-21 15:46:00,68.6,53.7,29.74,NNW,346,2.0,4.6,59,0.00,BKN,,0.08,617.0,WeatherDisplay:10.37,2013-09-21 19:46:00,
2013-09-21 15:51:00,68.9,53.5,29.74,NNE,14,3.0,8.1,58,0.00,BKN,,0.08,608.0,WeatherDisplay:10.37,2013-09-21 19:51:00,
2013-09-21 15:56:00,69.1,52.7,29.74,SW,217,4.7,11.5,56,0.00,BKN,,0.08,603.0,WeatherDisplay:10.37,2013-09-21 19:56:00,
2013-09-21 16:01:00,69.0,52.6,29.74,SSW,198,4.9,5.8,56,0.00,BKN,,0.08,613.0,WeatherDisplay:10.37,2013-09-21 20:01:00,
2013-09-21 16:06:00,69.3,54.4,29.74,NNW,340,2.2,4.0,59,0.00,BKN,,0.08,619.0,WeatherDisplay:10.37,2013-09-21 20:06:00,
2013-09-21 16:11:00,69.2,52.3,29.74,NW,318,3.3,4.6,55,0.00,BKN,,0.08,116.0,WeatherDisplay:10.37,2013-09-21 20:11:00,
2013-09-21 16:16:00,68.3,52.0,29.75,WNW,286,1.6,3.5,56,0.00,BKN,,0.08,102.0,WeatherDisplay:10.37,2013-09-21 20:16:00,
2013-09-21 16:21:00,67.9,51.1,29.75,SW,225,5.6,6.0,55,0.00,BKN,,0.08,645.0,WeatherDisplay:10.37,2013-09-21 20:21:00,
2013-09-21 16:26:00,67.6,50.9,29.75,WSW,246,3.0,6.0,55,0.00,BKN,,0.08,148.0,WeatherDisplay:10.37,2013-09-21 20:26:00,
2013-09-21 16:31:00,67.9,52.6,29.74,NNE,29,2.6,8.0,58,0.00,BKN,,0.08,563.0,WeatherDisplay:10.37,2013-09-21 20:31:00,
2013-09-21 16:36:00,68.2,52.4,29.74,WNW,294,6.7,10.4,57,0.00,BKN,,0.08,522.0,WeatherDisplay:10.37,2013-09-21 20:36:00,
2013-09-21 16:41:00,68.5,52.2,29.75,East,92,2.9,5.8,56,0.00,BKN,,0.08,510.0,WeatherDisplay:10.37,2013-09-21 20:41:00,
2013-09-21 16:46:00,68.6,50.3,29.75,WNW,294,5.0,10.0,52,0.00,BKN,BKN,0.08,497.0,WeatherDisplay:10.37,2013-09-21 20:46:00,
2013-09-21 16:51:00,68.9,52.1,29.75,West,261,2.9,8.0,55,0.00,BKN,,0.08,529.0,WeatherDisplay:10.37,2013-09-21 20:51:00,
2013-09-21 16:56:00,69.2,51.3,29.75,WNW,294,3.1,5.8,53,0.00,BKN,,0.08,580.0,WeatherDisplay:10.37,2013-09-21 20:56:00,
2013-09-21 17:01:00,69.0,50.6,29.75,NNW,342,4.2,7.0,52,0.00,BKN,,0.08,584.0,WeatherDisplay:10.37,2013-09-21 21:01:00,
2013-09-21 17:06:00,68.5,49.7,29.75,NE,46,2.8,6.9,51,0.00,BKN,,0.08,130.0,WeatherDisplay:10.37,2013-09-21 21:06:00,
2013-09-21 17:11:00,67.6,49.3,29.76,NW,313,2.3,3.5,52,0.00,BKN,,0.08,459.0,WeatherDisplay:10.37,2013-09-21 21:11:00,
2013-09-21 17:16:00,67.0,49.3,29.76,NW,316,2.0,12.0,53,0.00,BKN,BKN,0.08,123.0,WeatherDisplay:10.37,2013-09-21 21:16:00,
2013-09-21 17:21:00,66.5,49.8,29.76,NE,54,2.0,3.5,55,0.00,BKN,,0.08,167.0,WeatherDisplay:10.37,2013-09-21 21:21:00,
2013-09-21 17:26:00,67.0,49.8,29.76,West,265,4.4,10.4,54,0.00,BKN,,0.08,408.0,WeatherDisplay:10.37,2013-09-21 21:26:00,
2013-09-21 17:31:00,66.9,49.2,29.76,NW,305,1.8,3.5,53,0.00,BKN,,0.08,62.0,WeatherDisplay:10.37,2013-09-21 21:31:00,
2013-09-21 17:36:00,66.1,48.0,29.77,WNW,295,3.4,6.9,52,0.00,BKN,,0.08,79.0,WeatherDisplay:10.37,2013-09-21 21:36:00,
2013-09-21 17:41:00,65.4,48.8,29.77,NW,321,2.9,4.0,55,0.00,BKN,,0.08,100.0,WeatherDisplay:10.37,2013-09-21 21:41:00,
2013-09-21 17:46:00,64.9,48.8,29.77,NNE,26,2.4,6.0,56,0.00,BKN,,0.08,97.0,WeatherDisplay:10.37,2013-09-21 21:46:00,
2013-09-21 17:51:00,64.7,48.6,29.77,West,262,4.2,8.1,56,0.00,BKN,,0.08,97.0,WeatherDisplay:10.37,2013-09-21 21:51:00,
2013-09-21 17:56:00,64.4,48.8,29.77,NNW,347,3.3,5.8,57,0.00,BKN,,0.08,74.0,WeatherDisplay:10.37,2013-09-21 21:56:00,
2013-09-21 18:01:00,64.2,49.6,29.77,NNW,339,2.2,4.6,59,0.00,SCT,,0.08,79.0,WeatherDisplay:10.37,2013-09-21 22:01:00,
2013-09-21 18:06:00,64.1,49.5,29.78,WNW,294,1.6,6.0,59,0.00,SCT,,0.08,77.0,WeatherDisplay:10.37,2013-09-21 22:06:00,
2013-09-21 18:11:00,64.1,49.5,29.78,North,355,1.9,4.6,59,0.00,SCT,,0.08,79.0,WeatherDisplay:10.37,2013-09-21 22:11:00,
2013-09-21 18:16:00,64.0,50.3,29.78,NNW,327,2.1,4.6,61,0.00,SCT,,0.08,79.0,WeatherDisplay:10.37,2013-09-21 22:16:00,
2013-09-21 18:21:00,63.8,49.6,29.78,NW,306,2.7,6.9,60,0.00,SCT,,0.08,62.0,WeatherDisplay:10.37,2013-09-21 22:21:00,
2013-09-21 18:26:00,63.7,49.5,29.78,NNW,330,2.0,5.8,60,0.00,SCT,,0.08,60.0,WeatherDisplay:10.37,2013-09-21 22:26:00,
2013-09-21 18:31:00,63.6,49.5,29.78,West,265,2.1,6.9,60,0.00,SCT,,0.08,65.0,WeatherDisplay:10.37,2013-09-21 22:31:00,
2013-09-21 18:36:00,63.5,48.9,29.79,North,11,2.8,4.6,59,0.00,SCT,,0.08,58.0,WeatherDisplay:10.37,2013-09-21 22:36:00,
2013-09-21 18:41:00,63.3,48.3,29.79,West,279,4.3,6.9,58,0.00,SCT,,0.08,47.0,WeatherDisplay:10.37,2013-09-21 22:41:00,
2013-09-21 18:46:00,63.2,49.1,29.79,NW,314,1.7,5.8,60,0.00,SCT,,0.08,37.0,WeatherDisplay:10.37,2013-09-21 22:46:00,
2013-09-21 18:51:00,63.1,49.0,29.79,WNW,293,3.3,6.9,60,0.00,SCT,,0.08,28.0,WeatherDisplay:10.37,2013-09-21 22:51:00,
2013-09-21 18:56:00,62.9,48.8,29.79,WNW,300,1.6,3.5,60,0.00,SCT,,0.08,26.0,WeatherDisplay:10.37,2013-09-21 22:56:00,
2013-09-21 19:01:00,62.9,49.2,29.79,NNE,32,1.8,4.0,61,0.00,BKN,,0.08,23.0,WeatherDisplay:10.37,2013-09-21 23:01:00,
2013-09-21 19:06:00,62.7,49.1,29.79,NNW,338,1.2,3.5,61,0.00,BKN,,0.08,18.0,WeatherDisplay:10.37,2013-09-21 23:06:00,
2013-09-21 19:11:00,62.5,48.9,29.79,West,274,2.6,4.6,61,0.00,BKN,,0.08,14.0,WeatherDisplay:10.37,2013-09-21 23:11:00,
2013-09-21 19:16:00,62.4,49.2,29.79,North,355,1.7,3.5,62,0.00,BKN,,0.08,12.0,WeatherDisplay:10.37,2013-09-21 23:16:00,
2013-09-21 19:21:00,62.2,49.0,29.79,NW,325,2.5,4.6,62,0.00,BKN,,0.08,9.0,WeatherDisplay:10.37,2013-09-21 23:21:00,
2013-09-21 19:26:00,62.0,48.8,29.79,NNE,15,2.2,4.6,62,0.00,BKN,,0.08,5.0,WeatherDisplay:10.37,2013-09-21 23:26:00,
2013-09-21 19:31:00,61.8,48.2,29.79,West,277,3.0,4.6,61,0.00,BKN,,0.08,0.0,WeatherDisplay:10.37,2013-09-21 23:31:00,
2013-09-21 19:36:00,61.7,48.1,29.79,North,349,1.2,3.5,61,0.00,BKN,,0.08,0.0,WeatherDisplay:10.37,2013-09-21 23:36:00,
2013-09-21 19:41:00,61.6,48.4,29.80,WNW,292,0.9,2.3,62,0.00,BKN,,0.08,0.0,WeatherDisplay:10.37,2013-09-21 23:41:00,
2013-09-21 19:46:00,61.5,49.2,29.80,NW,313,0.1,1.2,64,0.00,BKN,,0.08,0.0,WeatherDisplay:10.37,2013-09-21 23:46:00,
2013-09-21 19:51:00,61.2,48.5,29.80,WNW,302,1.5,3.5,63,0.00,BKN,,0.08,0.0,WeatherDisplay:10.37,2013-09-21 23:51:00,
2013-09-21 19:56:00,61.0,49.1,29.80,WNW,282,0.6,2.3,65,0.00,BKN,,0.08,0.0,WeatherDisplay:10.37,2013-09-21 23:56:00,
2013-09-21 20:01:00,60.6,49.6,29.80,West,266,0.4,2.0,67,0.00,BKN,,0.08,0.0,WeatherDisplay:10.37,2013-09-22 00:01:00,
2013-09-21 20:06:00,60.1,48.7,29.80,WNW,296,1.6,2.3,66,0.00,BKN,,0.08,0.0,WeatherDisplay:10.37,2013-09-22 00:06:00,
2013-09-21 20:11:00,59.9,48.5,29.81,NNW,337,2.1,3.5,66,0.00,BKN,,0.08,0.0,WeatherDisplay:10.37,2013-09-22 00:11:00,
2013-09-21 20:16:00,59.8,48.4,29.81,WNW,301,0.8,4.6,66,0.00,BKN,,0.08,0.0,WeatherDisplay:10.37,2013-09-22 00:16:00,
2013-09-21 20:21:00,59.8,48.4,29.81,North,5,2.3,4.6,66,0.00,BKN,,0.08,0.0,WeatherDisplay:10.37,2013-09-22 00:21:00,
2013-09-21 20:26:00,59.8,48.8,29.82,WNW,297,2.0,3.5,67,0.00,BKN,,0.08,0.0,WeatherDisplay:10.37,2013-09-22 00:26:00,
2013-09-21 20:31:00,59.6,49.0,29.82,WNW,288,2.2,4.6,68,0.00,BKN,,0.08,0.0,WeatherDisplay:10.37,2013-09-22 00:31:00,
2013-09-21 20:36:00,59.3,49.1,29.83,North,360,1.8,3.5,69,0.00,BKN,,0.08,0.0,WeatherDisplay:10.37,2013-09-22 00:36:00,
2013-09-21 20:41:00,59.0,48.8,29.83,NNE,21,0.9,3.5,69,0.00,BKN,,0.08,0.0,WeatherDisplay:10.37,2013-09-22 00:41:00,
2013-09-21 20:46:00,58.9,49.1,29.83,WNW,286,2.6,5.0,70,0.00,BKN,,0.08,0.0,WeatherDisplay:10.37,2013-09-22 00:46:00,
2013-09-21 20:51:00,58.8,49.0,29.83,NW,315,2.3,3.5,70,0.00,BKN,,0.08,0.0,WeatherDisplay:10.37,2013-09-22 00:51:00,
2013-09-21 20:56:00,58.8,49.0,29.83,NNW,327,0.6,2.3,70,0.00,BKN,,0.08,0.0,WeatherDisplay:10.37,2013-09-22 00:56:00,
2013-09-21 21:01:00,58.7,48.9,29.83,NW,324,1.9,4.6,70,0.00,BKN,,0.08,0.0,WeatherDisplay:10.37,2013-09-22 01:01:00,
2013-09-21 21:06:00,58.7,48.9,29.83,NNW,346,1.7,4.0,70,0.00,BKN,,0.08,0.0,WeatherDisplay:10.37,2013-09-22 01:06:00,
2013-09-21 21:11:00,58.5,48.7,29.83,North,5,1.5,4.0,70,0.00,BKN,,0.08,0.0,WeatherDisplay:10.37,2013-09-22 01:11:00,
2013-09-21 21:16:00,58.3,48.9,29.83,WNW,303,1.4,3.5,71,0.00,BKN,,0.08,0.0,WeatherDisplay:10.37,2013-09-22 01:16:00,
2013-09-21 21:21:00,58.1,49.1,29.83,North,351,0.7,2.3,72,0.00,BKN,,0.08,0.0,WeatherDisplay:10.37,2013-09-22 01:21:00,
2013-09-21 21:26:00,57.8,48.8,29.84,North,350,0.1,2.3,72,0.00,BKN,,0.08,0.0,WeatherDisplay:10.37,2013-09-22 01:26:00,
2013-09-21 21:31:00,57.5,49.3,29.84,WNW,297,0.0,0.0,74,0.00,BKN,,0.08,0.0,WeatherDisplay:10.37,2013-09-22 01:31:00,
2013-09-21 21:36:00,57.2,49.0,29.84,WNW,286,1.2,2.3,74,0.00,BKN,,0.08,0.0,WeatherDisplay:10.37,2013-09-22 01:36:00,
2013-09-21 21:41:00,56.9,49.4,29.84,West,268,0.6,2.0,76,0.00,BKN,,0.08,0.0,WeatherDisplay:10.37,2013-09-22 01:41:00,
2013-09-21 21:46:00,56.7,49.2,29.84,ENE,65,0.9,2.3,76,0.00,BKN,,0.08,0.0,WeatherDisplay:10.37,2013-09-22 01:46:00,
2013-09-21 21:51:00,56.6,48.8,29.85,NW,325,0.9,2.3,75,0.00,BKN,,0.08,0.0,WeatherDisplay:10.37,2013-09-22 01:51:00,
2013-09-21 21:56:00,56.6,48.8,29.85,North,5,1.1,4.6,75,0.00,BKN,,0.08,0.0,WeatherDisplay:10.37,2013-09-22 01:56:00,
2013-09-21 22:01:00,56.6,49.1,29.85,NE,49,2.0,3.0,76,0.00,BKN,,0.08,0.0,WeatherDisplay:10.37,2013-09-22 02:01:00,
2013-09-21 22:06:00,56.6,49.1,29.85,ENE,73,1.5,3.5,76,0.00,BKN,,0.08,0.0,WeatherDisplay:10.37,2013-09-22 02:06:00,
2013-09-21 22:11:00,56.5,49.0,29.85,West,279,1.4,3.5,76,0.00,BKN,,0.08,0.0,WeatherDisplay:10.37,2013-09-22 02:11:00,
2013-09-21 22:16:00,56.5,49.4,29.85,West,276,1.4,3.5,77,0.00,BKN,,0.08,0.0,WeatherDisplay:10.37,2013-09-22 02:16:00,
2013-09-21 22:21:00,56.4,49.3,29.85,WNW,291,1.1,2.0,77,0.00,BKN,,0.08,0.0,WeatherDisplay:10.37,2013-09-22 02:21:00,
2013-09-21 22:26:00,56.4,49.3,29.85,WNW,295,1.0,3.5,77,0.00,BKN,,0.08,0.0,WeatherDisplay:10.37,2013-09-22 02:26:00,
2013-09-21 22:31:00,56.4,49.3,29.85,NW,306,1.9,4.0,77,0.00,BKN,,0.08,0.0,WeatherDisplay:10.37,2013-09-22 02:31:00,
2013-09-21 22:36:00,56.4,48.9,29.85,WNW,297,2.3,5.8,76,0.00,BKN,,0.08,0.0,WeatherDisplay:10.37,2013-09-22 02:36:00,
2013-09-21 22:41:00,56.4,48.9,29.85,NNE,23,1.9,4.6,76,0.00,BKN,,0.08,0.0,WeatherDisplay:10.37,2013-09-22 02:41:00,
2013-09-21 22:46:00,56.4,48.9,29.86,NW,319,0.2,2.3,76,0.00,BKN,,0.08,0.0,WeatherDisplay:10.37,2013-09-22 02:46:00,
2013-09-21 22:51:00,56.4,48.6,29.86,WNW,286,1.2,3.5,75,0.00,BKN,,0.08,0.0,WeatherDisplay:10.37,2013-09-22 02:51:00,
2013-09-21 22:56:00,56.4,48.6,29.86,WNW,288,2.4,3.0,75,0.00,BKN,,0.08,0.0,WeatherDisplay:10.37,2013-09-22 02:56:00,
2013-09-21 23:01:00,56.5,48.7,29.86,NNE,19,2.1,3.5,75,0.00,BKN,,0.08,0.0,WeatherDisplay:10.37,2013-09-22 03:01:00,
2013-09-21 23:07:00,56.5,48.7,29.86,NW,324,0.9,3.5,75,0.00,BKN,,0.08,0.0,WeatherDisplay:10.37,2013-09-22 03:07:00,
2013-09-21 23:12:00,56.6,49.1,29.86,North,351,1.1,2.3,76,0.00,BKN,,0.08,0.0,WeatherDisplay:10.37,2013-09-22 03:12:00,
2013-09-21 23:17:00,56.5,49.0,29.87,North,9,1.3,2.3,76,0.00,BKN,,0.08,0.0,WeatherDisplay:10.37,2013-09-22 03:17:00,
2013-09-21 23:22:00,56.5,49.0,29.87,NNE,13,1.0,3.5,76,0.00,BKN,,0.08,0.0,WeatherDisplay:10.37,2013-09-22 03:22:00,
2013-09-21 23:27:00,56.4,48.9,29.87,NW,316,2.3,3.5,76,0.00,BKN,,0.08,0.0,WeatherDisplay:10.37,2013-09-22 03:27:00,
2013-09-21 23:32:00,56.4,49.3,29.87,North,11,1.6,3.5,77,0.00,BKN,,0.08,0.0,WeatherDisplay:10.37,2013-09-22 03:32:00,
2013-09-21 23:37:00,56.3,48.8,29.87,West,266,1.2,2.3,76,0.00,BKN,,0.08,0.0,WeatherDisplay:10.37,2013-09-22 03:37:00,
2013-09-21 23:42:00,56.3,48.5,29.87,NNE,19,1.7,3.5,75,0.00,BKN,,0.08,0.0,WeatherDisplay:10.37,2013-09-22 03:42:00,
2013-09-21 23:47:00,56.3,48.5,29.88,East,97,1.2,2.3,75,0.00,BKN,,0.08,0.0,WeatherDisplay:10.37,2013-09-22 03:47:00,
2013-09-21 23:52:00,56.2,48.4,29.88,NNE,13,1.2,3.5,75,0.00,BKN,,0.08,0.0,WeatherDisplay:10.37,2013-09-22 03:52:00,
2013-09-21 23:57:00,56.2,47.7,29.88,NNW,338,1.8,3.5,73,0.00,BKN,,0.08,0.0,WeatherDisplay:10.37,2013-09-22 03:57:00,